This is the latest recevied weather packets stored in our database for station/object DB0RV-13. If no packets are shown the sender has not sent any weather packets the latest 1 day(s).
| Time | Temp. | Humidity | Pressure | Rain* | Wind** | Luminosity | Snow |
|---|---|---|---|---|---|---|---|
| 1778086502 | 9.44° C | 88% | 1008 hPa | - | - | - | - |
| 1778083802 | 8.89° C | 89% | 1007.9 hPa | - | - | - | - |
| 1778082602 | 8.89° C | 90% | 1007.8 hPa | - | - | - | - |
| 1778081702 | 8.89° C | 92% | 1007.6 hPa | - | - | - | - |
| 1778081102 | 8.33° C | 92% | 1007.5 hPa | - | - | - | - |
| 1778077802 | 9.44° C | 89% | 1006.9 hPa | - | - | - | - |
| 1778077202 | 10° C | 85% | 1006.5 hPa | - | - | - | - |
| 1778076602 | 11.67° C | 74% | 1006.2 hPa | - | - | - | - |
| 1778075702 | 14.44° C | 71% | 1005.6 hPa | - | - | - | - |
| 1778075102 | 15° C | 70% | 1005.5 hPa | - | - | - | - |
| 1778074502 | 15° C | 70% | 1005.4 hPa | - | - | - | - |
| 1778070302 | 14.44° C | 66% | 1005.5 hPa | - | - | - | - |
| 1778069702 | 14.44° C | 69% | 1005.4 hPa | - | - | - | - |
| 1778064302 | 14.44° C | 70% | 1005.5 hPa | - | - | - | - |
| 1778063102 | 14.44° C | 69% | 1005.8 hPa | - | - | - | - |
| 1778062502 | 13.89° C | 70% | 1005.7 hPa | - | - | - | - |
| 1778061902 | 13.89° C | 73% | 1005.8 hPa | - | - | - | - |
| 1778061002 | 13.33° C | 72% | 1005.9 hPa | - | - | - | - |
| 1778060402 | 12.78° C | 78% | 1005.7 hPa | - | - | - | - |
| 1778059803 | 12.22° C | 79% | 1005.6 hPa | - | - | - | - |
| 1778058302 | 12.78° C | 79% | 1006.2 hPa | - | - | - | - |
| 1778057102 | 12.78° C | 77% | 1006.1 hPa | - | - | - | - |
| 1778056502 | 12.78° C | 78% | 1006.1 hPa | - | - | - | - |
| 1778055603 | 12.22° C | 81% | 1005.9 hPa | - | - | - | - |
| 1778055002 | 12.22° C | 81% | 1005.8 hPa | - | - | - | - |
* Rain since midnight (hover to see other rain measurements)
** Current wind speed in m/s (hover to see current wind gust speed)